createdAt,value
2023-09-01T00:02:13.034Z,14.93
2023-09-01T00:04:39.319Z,15.02
2023-09-01T00:07:05.603Z,14.97
2023-09-01T00:09:31.882Z,15.03
2023-09-01T00:11:58.154Z,14.76
2023-09-01T00:14:24.536Z,14.28
2023-09-01T00:16:50.852Z,14.06
2023-09-01T00:19:17.127Z,14.29
2023-09-01T00:21:43.399Z,14.27
2023-09-01T00:24:09.668Z,14.29
2023-09-01T00:26:35.928Z,14.17
2023-09-01T00:29:02.241Z,14.21
2023-09-01T00:31:28.586Z,14.42
2023-09-01T00:33:54.857Z,14.17
2023-09-01T00:36:21.105Z,13.97
2023-09-01T00:38:47.386Z,13.63
2023-09-01T00:41:13.684Z,13.87
2023-09-01T00:43:39.957Z,14.13
2023-09-01T00:46:06.286Z,14.06
2023-09-01T00:48:32.640Z,13.90
2023-09-01T00:50:58.912Z,13.73
2023-09-01T00:53:25.187Z,13.94
2023-09-01T00:55:51.515Z,14.00
2023-09-01T00:58:17.852Z,14.10
2023-09-01T01:00:44.144Z,13.80
2023-09-01T01:03:10.555Z,13.83
2023-09-01T01:05:37.007Z,13.73
2023-09-01T01:08:03.287Z,13.55
2023-09-01T01:10:29.569Z,13.28
2023-09-01T01:12:55.874Z,13.66
2023-09-01T01:15:22.140Z,13.89
2023-09-01T01:17:48.453Z,13.89
2023-09-01T01:20:14.811Z,14.02
2023-09-01T01:22:41.182Z,14.25
2023-09-01T01:25:07.447Z,14.25
2023-09-01T01:27:33.756Z,13.93
2023-09-01T01:30:00.118Z,13.81
2023-09-01T01:32:26.432Z,13.41
2023-09-01T01:34:52.878Z,13.02
2023-09-01T01:37:19.160Z,13.06
2023-09-01T01:39:45.437Z,13.20
2023-09-01T01:42:11.701Z,13.09
2023-09-01T01:44:37.983Z,13.33
2023-09-01T01:47:04.363Z,13.50
2023-09-01T01:49:30.717Z,13.57
2023-09-01T01:51:56.987Z,13.49
2023-09-01T01:54:23.245Z,13.56
2023-09-01T01:56:49.541Z,13.89
2023-09-01T01:59:15.800Z,13.88
2023-09-01T02:01:42.106Z,13.66
2023-09-01T02:04:08.377Z,13.87
2023-09-01T02:06:34.665Z,14.14
2023-09-01T02:09:00.944Z,13.83
2023-09-01T02:11:27.249Z,13.80
2023-09-01T02:13:53.597Z,13.66
2023-09-01T02:16:19.996Z,13.38
2023-09-01T02:18:46.310Z,13.34
2023-09-01T02:21:12.581Z,13.08
2023-09-01T02:23:38.835Z,13.40
2023-09-01T02:26:05.110Z,13.17
2023-09-01T02:28:31.371Z,13.19
2023-09-01T02:30:57.749Z,13.12
2023-09-01T02:33:24.068Z,12.85
2023-09-01T02:35:50.328Z,13.13
2023-09-01T02:38:16.863Z,13.11
2023-09-01T02:40:43.405Z,13.12
2023-09-01T02:43:09.662Z,12.85
2023-09-01T02:45:35.937Z,13.00
2023-09-01T02:48:02.253Z,13.16
2023-09-01T02:50:28.577Z,13.07
2023-09-01T02:52:54.865Z,13.11
2023-09-01T02:55:21.189Z,13.36
2023-09-01T02:57:47.506Z,13.53
2023-09-01T03:00:13.783Z,13.86
2023-09-01T03:02:40.129Z,13.95
2023-09-01T03:05:06.504Z,14.08
2023-09-01T03:07:32.781Z,14.21
2023-09-01T03:09:59.061Z,14.29
2023-09-01T03:12:25.320Z,14.19
2023-09-01T03:14:51.595Z,13.49
2023-09-01T03:17:17.853Z,13.29
2023-09-01T03:19:44.145Z,13.07
2023-09-01T03:22:10.475Z,13.15
2023-09-01T03:24:36.765Z,13.34
2023-09-01T03:27:03.052Z,13.53
2023-09-01T03:29:29.328Z,13.71
2023-09-01T03:31:55.635Z,13.82
2023-09-01T03:34:21.914Z,14.18
2023-09-01T03:36:48.202Z,14.30
2023-09-01T03:39:14.580Z,14.24
2023-09-01T03:41:40.858Z,14.17
2023-09-01T03:44:07.126Z,14.18
2023-09-01T03:46:33.406Z,13.67
2023-09-01T03:48:59.692Z,13.11
2023-09-01T03:51:25.968Z,13.04
2023-09-01T03:53:52.243Z,13.21
2023-09-01T03:56:18.550Z,13.17
2023-09-01T03:58:44.864Z,13.29
2023-09-01T04:01:11.177Z,13.13
2023-09-01T04:03:37.569Z,12.88
2023-09-01T04:06:03.917Z,12.84
2023-09-01T04:08:30.203Z,12.95
2023-09-01T04:10:56.468Z,13.15
2023-09-01T04:13:35.999Z,12.99
2023-09-01T04:16:19.427Z,12.99
2023-09-01T04:18:45.776Z,12.88
2023-09-01T04:21:12.086Z,12.57
2023-09-01T04:23:38.337Z,12.99
2023-09-01T04:26:04.627Z,12.53
2023-09-01T04:28:30.966Z,12.64
2023-09-01T04:30:57.213Z,12.88
2023-09-01T04:33:23.529Z,13.03
2023-09-01T04:35:49.821Z,13.03
2023-09-01T04:38:16.326Z,13.11
2023-09-01T04:40:42.817Z,13.45
2023-09-01T04:43:09.132Z,13.54
2023-09-01T04:45:35.425Z,13.40
2023-09-01T04:48:01.723Z,13.57
2023-09-01T04:50:28.021Z,13.61
2023-09-01T04:52:54.296Z,13.73
2023-09-01T04:55:20.603Z,13.67
2023-09-01T04:57:46.880Z,13.76
2023-09-01T05:00:13.140Z,13.70
2023-09-01T05:02:39.426Z,13.40
2023-09-01T05:05:05.753Z,13.76
2023-09-01T05:07:32.011Z,13.59
2023-09-01T05:09:58.281Z,13.90
2023-09-01T05:12:24.550Z,13.88
2023-09-01T05:14:50.807Z,13.71
2023-09-01T05:17:17.211Z,14.08
2023-09-01T05:19:43.521Z,14.53
2023-09-01T05:22:09.781Z,14.65
2023-09-01T05:24:36.042Z,14.75
2023-09-01T05:27:02.344Z,14.86
2023-09-01T05:29:28.674Z,14.67
2023-09-01T05:31:54.963Z,14.30
2023-09-01T05:34:21.290Z,14.20
2023-09-01T05:36:47.600Z,13.39
2023-09-01T05:39:13.862Z,13.78
2023-09-01T05:41:40.134Z,13.66
2023-09-01T05:44:06.388Z,13.97
2023-09-01T05:46:32.672Z,14.22
2023-09-01T05:48:58.969Z,14.45
2023-09-01T05:51:25.248Z,14.56
2023-09-01T05:53:51.524Z,14.49
2023-09-01T05:56:17.799Z,14.12
2023-09-01T05:58:44.057Z,14.24
2023-09-01T06:01:10.410Z,14.51
2023-09-01T06:03:36.727Z,14.56
2023-09-01T06:06:03.007Z,15.09
2023-09-01T06:08:29.272Z,15.36
2023-09-01T06:10:55.566Z,15.46
2023-09-01T06:13:21.842Z,15.65
2023-09-01T06:15:48.189Z,16.21
2023-09-01T06:18:14.756Z,16.19
2023-09-01T06:20:41.261Z,15.83
2023-09-01T06:23:07.542Z,15.96
2023-09-01T06:25:33.801Z,16.26
2023-09-01T06:28:00.067Z,16.39
2023-09-01T06:30:26.331Z,16.61
2023-09-01T06:32:52.737Z,16.75
2023-09-01T06:35:19.066Z,16.42
2023-09-01T06:37:45.361Z,16.50
2023-09-01T06:40:11.650Z,16.68
2023-09-01T06:42:37.933Z,17.07
2023-09-01T06:45:04.187Z,17.10
2023-09-01T06:47:30.481Z,16.67
2023-09-01T06:49:56.777Z,16.83
2023-09-01T06:52:23.043Z,17.01
2023-09-01T06:54:49.312Z,16.80
2023-09-01T06:57:15.585Z,16.53
2023-09-01T06:59:41.931Z,16.70
2023-09-01T07:02:08.184Z,17.20
2023-09-01T07:04:34.448Z,16.88
2023-09-01T07:07:00.708Z,16.36
2023-09-01T07:09:26.970Z,16.13
2023-09-01T07:11:53.221Z,16.32
2023-09-01T07:14:19.495Z,16.09
2023-09-01T07:16:45.765Z,16.27
2023-09-01T07:19:12.035Z,16.41
2023-09-01T07:21:38.302Z,16.65
2023-09-01T07:24:04.606Z,16.62
2023-09-01T07:26:30.888Z,16.63
2023-09-01T07:28:57.175Z,17.09
2023-09-01T07:31:23.479Z,16.85
2023-09-01T07:33:49.762Z,16.98
2023-09-01T07:36:16.039Z,16.92
2023-09-01T07:38:42.352Z,17.15
2023-09-01T07:41:08.652Z,17.03
2023-09-01T07:43:34.928Z,17.16
2023-09-01T07:46:01.223Z,17.38
2023-09-01T07:48:27.817Z,17.40
2023-09-01T07:50:54.330Z,17.44
2023-09-01T07:53:20.625Z,18.01
2023-09-01T07:55:46.910Z,17.78
2023-09-01T07:58:13.477Z,17.42
2023-09-01T08:00:40.192Z,17.73
2023-09-01T08:03:06.645Z,17.98
2023-09-01T08:05:33.020Z,17.89
2023-09-01T08:07:59.311Z,18.05
2023-09-01T08:10:25.582Z,17.45
2023-09-01T08:12:51.850Z,17.37
2023-09-01T08:15:18.148Z,17.15
2023-09-01T08:17:44.458Z,17.41
2023-09-01T08:20:13.198Z,17.21
2023-09-01T08:22:40.707Z,17.23
2023-09-01T08:25:06.984Z,17.03
2023-09-01T08:27:33.351Z,16.87
2023-09-01T08:29:59.644Z,17.15
2023-09-01T08:32:25.942Z,17.32
2023-09-01T08:34:52.224Z,17.64
2023-09-01T08:37:18.515Z,18.08
2023-09-01T08:39:44.782Z,18.07
2023-09-01T08:42:11.037Z,17.88
2023-09-01T08:44:37.299Z,18.15
2023-09-01T08:47:03.629Z,17.81
2023-09-01T08:49:29.926Z,18.08
2023-09-01T08:51:56.215Z,17.46
2023-09-01T08:54:22.494Z,17.59
2023-09-01T08:56:48.750Z,17.81
2023-09-01T08:59:15.023Z,18.03
2023-09-01T09:01:41.330Z,18.53
2023-09-01T09:04:07.767Z,18.14
2023-09-01T09:06:34.104Z,17.95
2023-09-01T09:09:00.375Z,17.82
2023-09-01T09:11:26.710Z,18.24
2023-09-01T09:14:04.297Z,18.09
2023-09-01T09:16:35.846Z,18.21
2023-09-01T09:19:02.293Z,18.56
2023-09-01T09:21:28.646Z,18.67
2023-09-01T09:24:07.052Z,18.38
2023-09-01T09:26:37.844Z,18.44
2023-09-01T09:29:04.133Z,18.41
2023-09-01T09:31:30.429Z,18.31
2023-09-01T09:33:56.699Z,18.15
2023-09-01T09:36:22.976Z,18.84
2023-09-01T09:38:49.250Z,18.69
2023-09-01T09:41:15.515Z,18.66
2023-09-01T09:43:41.800Z,18.86
2023-09-01T09:46:08.146Z,19.01
2023-09-01T09:48:34.471Z,19.04
2023-09-01T09:51:00.800Z,18.89
2023-09-01T09:53:27.078Z,19.03
2023-09-01T09:55:53.338Z,19.14
2023-09-01T09:58:19.654Z,18.84
2023-09-01T10:00:45.954Z,19.13
2023-09-01T10:03:12.292Z,19.17
2023-09-01T10:05:40.702Z,19.26
2023-09-01T10:08:08.438Z,19.30
2023-09-01T10:10:34.788Z,19.49
2023-09-01T10:13:01.107Z,19.59
2023-09-01T10:15:27.375Z,19.52
2023-09-01T10:17:53.757Z,19.31
2023-09-01T10:20:20.036Z,19.35
2023-09-01T10:22:46.341Z,19.66
2023-09-01T10:25:12.612Z,19.72
2023-09-01T10:27:38.911Z,19.58
2023-09-01T10:30:05.170Z,19.69
2023-09-01T10:32:31.460Z,19.83
2023-09-01T10:34:57.737Z,19.94
2023-09-01T10:37:24.002Z,19.73
2023-09-01T10:39:50.271Z,19.58
2023-09-01T10:42:16.642Z,19.88
2023-09-01T10:44:42.903Z,19.84
2023-09-01T10:47:09.175Z,20.02
2023-09-01T10:49:35.525Z,20.04
2023-09-01T10:52:01.967Z,20.07
2023-09-01T10:54:28.228Z,20.22
2023-09-01T10:56:54.516Z,20.16
2023-09-01T10:59:20.800Z,20.05
2023-09-01T11:01:47.125Z,20.03
2023-09-01T11:04:13.885Z,19.77
2023-09-01T11:06:40.160Z,19.99
2023-09-01T11:09:06.780Z,20.07
2023-09-01T11:11:34.243Z,20.23
2023-09-01T11:14:00.516Z,20.25
2023-09-01T11:16:26.814Z,20.24
2023-09-01T11:18:53.132Z,20.50
2023-09-01T11:21:21.484Z,20.36
2023-09-01T11:23:48.002Z,20.34
2023-09-01T11:26:14.268Z,20.83
2023-09-01T11:28:40.522Z,20.53
2023-09-01T11:31:07.105Z,20.82
2023-09-01T11:33:33.564Z,20.66
2023-09-01T11:35:59.935Z,20.76
2023-09-01T11:38:26.268Z,20.79
2023-09-01T11:40:52.695Z,21.16
2023-09-01T11:43:19.016Z,21.12
2023-09-01T11:45:45.306Z,21.18
2023-09-01T11:48:11.652Z,21.32
2023-09-01T11:50:37.967Z,21.39
2023-09-01T11:53:04.238Z,21.44
2023-09-01T11:55:31.632Z,21.44
2023-09-01T11:57:58.146Z,21.42
2023-09-01T12:00:24.416Z,21.14
2023-09-01T12:02:50.701Z,21.09
2023-09-01T12:05:17.035Z,21.26
2023-09-01T12:07:43.309Z,21.22
2023-09-01T12:10:09.615Z,21.49
2023-09-01T12:12:35.892Z,21.62
2023-09-01T12:15:02.180Z,21.46
2023-09-01T12:17:28.590Z,21.55
2023-09-01T12:19:54.974Z,21.60
2023-09-01T12:22:21.284Z,21.63
2023-09-01T12:24:47.581Z,21.51
2023-09-01T12:27:13.945Z,21.66
2023-09-01T12:29:40.296Z,21.62
2023-09-01T12:32:06.649Z,21.61
2023-09-01T12:34:33.045Z,21.41
2023-09-01T12:36:59.304Z,21.68
2023-09-01T12:39:25.640Z,22.02
2023-09-01T12:41:51.946Z,21.92
2023-09-01T12:44:18.280Z,21.62
2023-09-01T12:46:44.631Z,21.72
2023-09-01T12:49:10.935Z,21.85
2023-09-01T12:51:37.218Z,21.84
2023-09-01T12:54:03.550Z,21.55
2023-09-01T12:56:29.928Z,21.95
2023-09-01T12:58:56.200Z,22.15
2023-09-01T13:01:22.587Z,22.05
2023-09-01T13:03:49.028Z,22.10
2023-09-01T13:06:15.309Z,22.00
2023-09-01T13:08:41.582Z,21.69
2023-09-01T13:11:09.962Z,21.66
2023-09-01T13:13:36.609Z,21.60
2023-09-01T13:16:02.926Z,21.66
2023-09-01T13:18:29.244Z,21.61
2023-09-01T13:20:55.520Z,21.57
2023-09-01T13:23:21.831Z,21.75
2023-09-01T13:25:48.122Z,21.61
2023-09-01T13:28:14.387Z,21.51
2023-09-01T13:30:40.649Z,21.74
2023-09-01T13:33:07.054Z,21.34
2023-09-01T13:35:33.411Z,21.73
2023-09-01T13:37:59.680Z,21.69
2023-09-01T13:40:25.966Z,21.85
2023-09-01T13:42:52.283Z,21.81
2023-09-01T13:45:18.562Z,21.73
2023-09-01T13:47:44.906Z,21.55
2023-09-01T13:50:11.267Z,21.75
2023-09-01T13:52:38.945Z,21.68
2023-09-01T13:55:05.470Z,21.64
2023-09-01T13:57:33.780Z,22.24
2023-09-01T14:00:00.169Z,22.10
2023-09-01T14:02:26.572Z,22.39
2023-09-01T14:04:52.855Z,22.12
2023-09-01T14:07:19.200Z,22.55
2023-09-01T14:09:45.548Z,22.54
2023-09-01T14:12:11.940Z,22.76
2023-09-01T14:14:38.230Z,22.54
2023-09-01T14:17:04.577Z,22.50
2023-09-01T14:19:30.957Z,22.22
2023-09-01T14:21:57.248Z,22.01
2023-09-01T14:24:23.567Z,21.87
2023-09-01T14:26:49.856Z,22.30
2023-09-01T14:29:16.184Z,22.44
2023-09-01T14:31:42.463Z,22.26
2023-09-01T14:34:08.752Z,22.29
2023-09-01T14:36:35.042Z,22.81
2023-09-01T14:39:01.355Z,22.35
2023-09-01T14:41:27.663Z,22.32
2023-09-01T14:43:53.946Z,22.37
2023-09-01T14:46:20.323Z,22.30
2023-09-01T14:48:46.637Z,22.30
2023-09-01T14:51:12.899Z,22.28
2023-09-01T14:53:39.176Z,22.48
2023-09-01T14:56:05.450Z,22.29
2023-09-01T14:58:31.754Z,22.20
2023-09-01T15:00:58.062Z,22.34
2023-09-01T15:03:24.439Z,22.51
2023-09-01T15:05:50.765Z,22.17
2023-09-01T15:08:17.052Z,22.35
2023-09-01T15:10:43.342Z,22.25
2023-09-01T15:13:09.618Z,22.38
2023-09-01T15:15:35.901Z,22.20
2023-09-01T15:18:02.201Z,22.31
2023-09-01T15:20:28.568Z,22.42
2023-09-01T15:22:54.839Z,22.38
2023-09-01T15:25:21.090Z,22.42
2023-09-01T15:27:47.445Z,22.39
2023-09-01T15:30:13.778Z,22.24
2023-09-01T15:32:40.076Z,22.18
2023-09-01T15:35:20.829Z,22.29
2023-09-01T15:37:48.100Z,22.24
2023-09-01T15:40:14.393Z,22.22
2023-09-01T15:42:40.694Z,22.29
2023-09-01T15:45:06.962Z,22.33
2023-09-01T15:47:33.286Z,22.26
2023-09-01T15:49:59.615Z,22.20
2023-09-01T15:52:25.999Z,21.99
2023-09-01T15:54:52.292Z,21.94
2023-09-01T15:57:18.563Z,22.03
2023-09-01T15:59:44.851Z,22.05
2023-09-01T16:02:11.200Z,22.14
2023-09-01T16:04:37.635Z,22.10
2023-09-01T16:07:03.973Z,21.74
2023-09-01T16:09:30.247Z,21.98
2023-09-01T16:11:56.517Z,21.80
2023-09-01T16:14:22.785Z,21.87
2023-09-01T16:16:49.086Z,21.41
2023-09-01T16:19:15.351Z,21.36
2023-09-01T16:21:41.616Z,21.29
2023-09-01T16:24:07.890Z,21.43
2023-09-01T16:26:35.423Z,20.74
2023-09-01T16:29:01.698Z,21.08
2023-09-01T16:31:28.022Z,20.73
2023-09-01T16:33:54.344Z,20.42
2023-09-01T16:36:20.610Z,20.26
2023-09-01T16:38:46.870Z,20.14
2023-09-01T16:41:13.128Z,19.87
2023-09-01T16:43:39.416Z,19.58
2023-09-01T16:46:05.707Z,20.05
2023-09-01T16:48:31.982Z,19.98
2023-09-01T16:50:58.288Z,19.56
2023-09-01T16:53:24.579Z,19.61
2023-09-01T16:55:50.925Z,19.44
2023-09-01T16:58:17.292Z,19.65
2023-09-01T17:00:43.641Z,19.48
2023-09-01T17:03:10.241Z,19.49
2023-09-01T17:05:36.704Z,19.70
2023-09-01T17:08:03.006Z,19.63
2023-09-01T17:10:29.297Z,19.79
2023-09-01T17:12:55.565Z,19.46
2023-09-01T17:15:21.844Z,19.54
2023-09-01T17:17:48.137Z,19.82
2023-09-01T17:20:14.410Z,19.91
2023-09-01T17:22:40.714Z,19.11
2023-09-01T17:25:06.974Z,19.22
2023-09-01T17:27:33.262Z,19.19
2023-09-01T17:29:59.525Z,19.75
2023-09-01T17:32:25.913Z,19.32
2023-09-01T17:34:55.284Z,19.58
2023-09-01T17:37:21.950Z,19.94
2023-09-01T17:39:48.234Z,20.16
2023-09-01T17:42:14.512Z,19.49
2023-09-01T17:44:40.824Z,19.11
2023-09-01T17:47:07.112Z,18.72
2023-09-01T17:49:33.390Z,18.62
2023-09-01T17:51:59.668Z,18.84
2023-09-01T17:54:25.957Z,19.12
2023-09-01T17:56:52.218Z,19.33
2023-09-01T17:59:18.505Z,18.70
2023-09-01T18:01:44.823Z,18.43
2023-09-01T18:04:11.222Z,18.38
2023-09-01T18:06:37.623Z,18.28
2023-09-01T18:09:03.892Z,18.46
2023-09-01T18:11:30.144Z,18.56
2023-09-01T18:13:56.503Z,18.88
2023-09-01T18:16:22.800Z,18.87
2023-09-01T18:18:49.078Z,18.77
2023-09-01T18:21:15.349Z,18.78
2023-09-01T18:23:41.684Z,18.52
2023-09-01T18:26:07.959Z,18.55
2023-09-01T18:28:34.222Z,18.40
2023-09-01T18:31:00.505Z,18.32
2023-09-01T18:33:26.765Z,18.54
2023-09-01T18:35:53.042Z,18.63
2023-09-01T18:38:19.320Z,18.84
2023-09-01T18:40:45.574Z,19.09
2023-09-01T18:43:11.858Z,18.90
2023-09-01T18:45:38.165Z,18.93
2023-09-01T18:48:04.532Z,19.01
2023-09-01T18:50:30.851Z,18.70
2023-09-01T18:52:57.121Z,18.44
2023-09-01T18:55:23.395Z,18.24
2023-09-01T18:57:49.725Z,18.02
2023-09-01T19:00:16.027Z,18.41
2023-09-01T19:02:42.429Z,18.18
2023-09-01T19:05:08.791Z,18.07
2023-09-01T19:07:35.112Z,18.07
2023-09-01T19:10:01.449Z,18.20
2023-09-01T19:12:27.699Z,18.20
2023-09-01T19:14:53.992Z,17.58
2023-09-01T19:17:20.265Z,17.48
2023-09-01T19:19:46.572Z,17.42
2023-09-01T19:22:12.892Z,17.92
2023-09-01T19:24:39.222Z,18.17
2023-09-01T19:27:05.489Z,18.27
2023-09-01T19:29:31.805Z,18.25
2023-09-01T19:31:58.142Z,18.19
2023-09-01T19:34:24.432Z,17.76
2023-09-01T19:36:50.764Z,17.18
2023-09-01T19:39:17.040Z,17.25
2023-09-01T19:41:43.299Z,17.66
2023-09-01T19:44:11.685Z,17.74
2023-09-01T19:46:38.527Z,18.01
2023-09-01T19:49:04.812Z,18.02
2023-09-01T19:51:31.148Z,18.28
2023-09-01T19:53:57.427Z,18.35
2023-09-01T19:56:23.743Z,18.43
2023-09-01T19:58:50.082Z,18.64
2023-09-01T20:01:17.547Z,18.22
2023-09-01T20:03:44.065Z,17.62
2023-09-01T20:06:10.347Z,17.83
2023-09-01T20:08:36.636Z,17.82
2023-09-01T20:11:02.887Z,18.06
2023-09-01T20:13:29.943Z,17.67
2023-09-01T20:15:56.406Z,17.29
2023-09-01T20:18:22.858Z,17.05
2023-09-01T20:20:49.166Z,16.86
2023-09-01T20:23:15.711Z,16.84
2023-09-01T20:25:42.161Z,16.82
2023-09-01T20:28:08.474Z,17.02
2023-09-01T20:30:34.816Z,16.68
2023-09-01T20:33:01.184Z,16.71
2023-09-01T20:35:27.558Z,16.67
2023-09-01T20:37:53.874Z,16.67
2023-09-01T20:40:20.138Z,16.63
2023-09-01T20:42:46.422Z,16.52
2023-09-01T20:45:12.707Z,16.34
2023-09-01T20:47:39.084Z,16.41
2023-09-01T20:50:05.412Z,16.40
2023-09-01T20:52:31.682Z,16.39
2023-09-01T20:54:57.974Z,16.46
2023-09-01T20:57:26.009Z,16.48
2023-09-01T20:59:52.314Z,16.42
2023-09-01T21:02:18.554Z,16.40
2023-09-01T21:04:44.813Z,16.08
2023-09-01T21:07:11.087Z,16.29
2023-09-01T21:09:37.376Z,16.41
2023-09-01T21:12:03.653Z,16.36
2023-09-01T21:14:29.911Z,16.27
2023-09-01T21:16:56.302Z,16.46
2023-09-01T21:19:22.774Z,16.51
2023-09-01T21:21:49.051Z,16.57
2023-09-01T21:24:15.327Z,16.29
2023-09-01T21:26:41.601Z,16.26
2023-09-01T21:29:07.873Z,16.15
2023-09-01T21:31:34.144Z,16.29
2023-09-01T21:34:00.472Z,16.45
2023-09-01T21:36:26.784Z,16.51
2023-09-01T21:38:53.050Z,16.54
2023-09-01T21:41:19.309Z,16.73
2023-09-01T21:43:45.659Z,16.70
2023-09-01T21:46:11.947Z,16.62
2023-09-01T21:48:38.276Z,16.93
2023-09-01T21:51:04.555Z,17.25
2023-09-01T21:53:30.824Z,17.09
2023-09-01T21:55:57.093Z,16.86
2023-09-01T21:58:23.396Z,16.49
2023-09-01T22:00:49.820Z,16.12
2023-09-01T22:03:16.323Z,16.01
2023-09-01T22:05:42.839Z,16.17
2023-09-01T22:08:09.136Z,15.98
2023-09-01T22:10:35.394Z,16.03
2023-09-01T22:13:01.677Z,16.00
2023-09-01T22:15:27.944Z,16.10
2023-09-01T22:17:54.220Z,16.25
2023-09-01T22:20:20.590Z,16.41
2023-09-01T22:22:46.866Z,16.47
2023-09-01T22:25:13.205Z,16.20
2023-09-01T22:27:39.493Z,16.09
2023-09-01T22:30:05.802Z,16.11
2023-09-01T22:32:32.108Z,16.34
2023-09-01T22:34:58.409Z,16.22
2023-09-01T22:37:24.704Z,16.50
2023-09-01T22:39:50.956Z,16.24
2023-09-01T22:42:17.253Z,16.44
2023-09-01T22:44:43.505Z,16.43
2023-09-01T22:47:09.797Z,16.42
2023-09-01T22:49:36.074Z,16.36
2023-09-01T22:52:02.371Z,16.42
2023-09-01T22:54:28.637Z,16.29
2023-09-01T22:56:54.908Z,16.22
2023-09-01T22:59:21.187Z,16.27
2023-09-01T23:01:47.512Z,16.30
2023-09-01T23:04:13.793Z,16.47
2023-09-01T23:06:40.071Z,16.67
2023-09-01T23:09:06.362Z,16.41
2023-09-01T23:11:32.637Z,16.51
2023-09-01T23:13:58.895Z,16.56
2023-09-01T23:16:25.237Z,16.23
2023-09-01T23:18:51.577Z,15.97
2023-09-01T23:21:17.845Z,16.01
2023-09-01T23:23:44.107Z,16.24
2023-09-01T23:26:10.369Z,16.09
2023-09-01T23:28:36.642Z,15.86
2023-09-01T23:31:02.917Z,16.36
2023-09-01T23:33:29.190Z,16.41
2023-09-01T23:35:55.494Z,16.18
2023-09-01T23:38:21.816Z,16.52
2023-09-01T23:40:48.093Z,16.95
2023-09-01T23:43:14.366Z,16.21
2023-09-01T23:45:40.848Z,16.36
2023-09-01T23:48:07.232Z,16.09
2023-09-01T23:50:33.493Z,16.66
2023-09-01T23:52:59.797Z,16.85
2023-09-01T23:55:26.078Z,16.91
2023-09-01T23:57:52.339Z,16.44
